Time;durP1;ratioP1;P1;durP2;ratioP2;P2;SDS_P1;SDS_P2;PMS_P1;PMS_P2;Temp;Humidity;BMP_temperature;BMP_pressure;BME280_temperature;BME280_humidity;BME280_pressure;Samples;Min_cycle;Max_cycle;Signal;HPM_P1;HPM_P2
2023/08/18 00:02:06;;;;;;;13.00;8.90;;;;;;;-140.66;100.00;55571.53;5136580;27;20023;-72
2023/08/18 00:05:50;;;;;;;11.30;8.35;;;;;;;-140.66;100.00;55571.53;5136962;27;20045;-73
2023/08/18 00:09:35;;;;;;;14.38;9.02;;;;;;;-140.66;100.00;55571.53;5136382;27;20023;-72
2023/08/18 00:13:19;;;;;;;15.18;8.95;;;;;;;-140.66;100.00;55571.53;5136084;27;20028;-72
2023/08/18 00:17:03;;;;;;;10.35;8.40;;;;;;;-140.66;100.00;55571.53;5137591;27;20041;-73
2023/08/18 00:20:49;;;;;;;9.68;8.68;;;;;;;-140.66;100.00;55571.53;5136231;27;20106;-72
2023/08/18 00:24:35;;;;;;;10.82;9.02;;;;;;;-140.66;100.00;55571.53;5137069;27;20107;-72
2023/08/18 00:28:19;;;;;;;11.82;9.20;;;;;;;-140.66;100.00;55571.53;5140021;27;20352;-73
2023/08/18 00:32:03;;;;;;;13.15;9.48;;;;;;;-140.66;100.00;55571.53;5145157;27;20019;-72
2023/08/18 00:35:48;;;;;;;10.30;8.63;;;;;;;-140.66;100.00;55571.53;5123391;27;20018;-73
2023/08/18 00:39:32;;;;;;;11.98;9.30;;;;;;;-140.66;100.00;55571.53;5135742;27;20058;-72
2023/08/18 00:43:16;;;;;;;12.13;8.80;;;;;;;-140.66;100.00;55571.53;5136030;27;20023;-72
2023/08/18 00:47:01;;;;;;;11.02;8.68;;;;;;;-140.66;100.00;55571.53;5136874;27;20023;-72
2023/08/18 00:50:46;;;;;;;14.52;9.32;;;;;;;-140.66;100.00;55571.53;5146728;27;20049;-72
2023/08/18 00:54:31;;;;;;;15.13;8.75;;;;;;;-140.66;100.00;55571.53;5136145;27;20035;-72
2023/08/18 00:58:16;;;;;;;10.63;8.50;;;;;;;-140.66;100.00;55571.53;5135891;27;20027;-72
2023/08/18 01:02:02;;;;;;;11.20;9.48;;;;;;;-140.66;100.00;55571.53;5135238;27;20030;-71
2023/08/18 01:05:47;;;;;;;14.52;9.65;;;;;;;-140.66;100.00;55571.53;5136250;27;20058;-74
2023/08/18 01:09:31;;;;;;;12.50;9.15;;;;;;;-140.66;100.00;55571.53;5135169;27;20523;-71
2023/08/18 01:13:46;;;;;;;10.40;9.30;;;;;;;-140.66;100.00;55571.53;5135490;27;20114;-72
2023/08/18 01:17:40;;;;;;;12.02;9.15;;;;;;;-140.66;100.00;55571.53;5135189;27;20027;-73
2023/08/18 01:21:25;;;;;;;11.27;9.18;;;;;;;-140.66;100.00;55571.53;5134737;27;20062;-73
2023/08/18 01:25:09;;;;;;;10.73;8.80;;;;;;;-140.66;100.00;55571.53;5135439;27;20368;-72
2023/08/18 01:28:55;;;;;;;13.32;9.43;;;;;;;-140.66;100.00;55571.53;5134643;27;20095;-72
2023/08/18 01:33:02;;;;;;;16.52;9.80;;;;;;;-140.66;100.00;55571.53;5135762;27;20038;-72
2023/08/18 01:36:49;;;;;;;11.32;9.18;;;;;;;-140.66;100.00;55571.53;5134249;27;20030;-73
2023/08/18 01:40:35;;;;;;;10.73;9.27;;;;;;;-140.66;100.00;55571.53;5134934;27;20023;-73
2023/08/18 01:44:19;;;;;;;12.15;9.55;;;;;;;-140.66;100.00;55571.53;5134808;27;20028;-73
2023/08/18 01:48:04;;;;;;;12.00;10.50;;;;;;;-140.66;100.00;55571.53;5134812;27;20043;-72
2023/08/18 01:51:48;;;;;;;10.48;9.05;;;;;;;-140.66;100.00;55571.53;5136171;27;20030;-72
2023/08/18 01:55:32;;;;;;;16.08;9.77;;;;;;;-140.66;100.00;55571.53;5134281;27;20109;-72
2023/08/18 01:59:17;;;;;;;14.18;9.60;;;;;;;-140.66;100.00;55571.53;5135211;27;20533;-72
2023/08/18 02:03:01;;;;;;;14.43;10.30;;;;;;;-140.66;100.00;55571.53;5135599;27;20109;-73
2023/08/18 02:06:45;;;;;;;12.48;10.35;;;;;;;-140.66;100.00;55571.53;5134880;27;20380;-73
2023/08/18 02:10:29;;;;;;;12.60;10.63;;;;;;;-140.66;100.00;55571.53;5135122;28;20015;-72
2023/08/18 02:14:13;;;;;;;12.65;11.15;;;;;;;-140.66;100.00;55571.53;5135107;28;20054;-72
2023/08/18 02:17:58;;;;;;;13.00;11.57;;;;;;;-140.66;100.00;55571.53;5135387;28;20031;-72
2023/08/18 02:21:42;;;;;;;17.95;11.88;;;;;;;-140.66;100.00;55571.53;5134996;28;20027;-72
2023/08/18 02:25:26;;;;;;;15.38;11.40;;;;;;;-140.66;100.00;55571.53;5135516;28;20106;-72
2023/08/18 02:29:10;;;;;;;12.85;11.15;;;;;;;-140.66;100.00;55571.53;5139403;27;20453;-72
2023/08/18 02:32:55;;;;;;;15.75;11.30;;;;;;;-140.66;100.00;55571.53;5139273;27;20050;-72
2023/08/18 02:36:40;;;;;;;14.18;11.40;;;;;;;-140.66;100.00;55571.53;5139330;27;20073;-72
2023/08/18 02:40:25;;;;;;;12.27;10.77;;;;;;;-140.66;100.00;55571.53;5138587;27;20027;-72
2023/08/18 02:44:09;;;;;;;17.95;10.43;;;;;;;-140.66;100.00;55571.53;5139213;27;20027;-72
2023/08/18 02:47:53;;;;;;;15.02;10.95;;;;;;;-140.66;100.00;55571.53;5138153;27;20050;-73
2023/08/18 02:51:38;;;;;;;13.75;11.73;;;;;;;-140.66;100.00;55571.53;5139067;27;20078;-73
2023/08/18 02:55:22;;;;;;;14.77;10.63;;;;;;;-140.66;100.00;55571.53;5138470;27;20027;-73
2023/08/18 02:59:06;;;;;;;13.57;10.80;;;;;;;-140.66;100.00;55571.53;5138140;27;20345;-73
2023/08/18 03:02:50;;;;;;;14.60;10.93;;;;;;;-140.66;100.00;55571.53;5139197;27;20019;-72
2023/08/18 03:06:34;;;;;;;15.98;11.60;;;;;;;-140.66;100.00;55571.53;5138218;27;20035;-72
2023/08/18 03:10:19;;;;;;;15.48;11.00;;;;;;;-140.66;100.00;55571.53;5138755;27;20467;-73
2023/08/18 03:14:05;;;;;;;15.05;11.55;;;;;;;-140.66;100.00;55571.53;5138385;27;20027;-72
2023/08/18 03:17:50;;;;;;;14.77;11.27;;;;;;;-140.66;100.00;55571.53;5137174;27;20410;-72
2023/08/18 03:21:34;;;;;;;16.65;12.27;;;;;;;-140.66;100.00;55571.53;5138384;27;20027;-73
2023/08/18 03:25:18;;;;;;;14.40;11.32;;;;;;;-140.66;100.00;55571.53;5137594;27;20015;-72
2023/08/18 03:29:03;;;;;;;17.35;11.48;;;;;;;-140.66;100.00;55571.53;5144921;27;20065;-73
2023/08/18 03:32:50;;;;;;;19.90;11.60;;;;;;;-140.66;100.00;55571.53;5148566;27;20027;-72
2023/08/18 03:36:34;;;;;;;17.67;11.48;;;;;;;-140.66;100.00;55571.53;5137824;27;20453;-72
2023/08/18 03:40:18;;;;;;;29.02;13.00;;;;;;;-140.66;100.00;55571.53;5135848;27;20110;-74
2023/08/18 03:44:02;;;;;;;15.43;11.75;;;;;;;-140.66;100.00;55571.53;5137707;27;20337;-73
2023/08/18 03:47:47;;;;;;;14.88;11.50;;;;;;;-140.66;100.00;55571.53;5144054;27;20035;-72
2023/08/18 03:51:34;;;;;;;18.55;11.65;;;;;;;-140.66;100.00;55571.53;5139492;27;20031;-72
2023/08/18 03:55:18;;;;;;;18.52;11.80;;;;;;;-140.66;100.00;55571.53;5138242;27;20031;-71
2023/08/18 03:59:03;;;;;;;18.73;11.45;;;;;;;-140.66;100.00;55571.53;5137059;27;20405;-75
2023/08/18 04:02:47;;;;;;;17.52;12.80;;;;;;;-140.66;100.00;55571.53;5137039;27;20089;-72
2023/08/18 04:06:32;;;;;;;16.70;11.82;;;;;;;-140.66;100.00;55571.53;5137166;27;20071;-73
2023/08/18 04:10:16;;;;;;;16.35;12.27;;;;;;;-140.66;100.00;55571.53;5136889;27;20027;-73
2023/08/18 04:14:01;;;;;;;14.57;12.05;;;;;;;-140.66;100.00;55571.53;5136718;27;20088;-73
2023/08/18 04:17:45;;;;;;;16.17;12.07;;;;;;;-140.66;100.00;55571.53;5136526;27;20103;-73
2023/08/18 04:21:30;;;;;;;15.32;12.10;;;;;;;-140.66;100.00;55571.53;5137210;27;20026;-73
2023/08/18 04:25:14;;;;;;;19.65;11.88;;;;;;;-140.66;100.00;55571.53;5136459;27;20027;-74
2023/08/18 04:28:58;;;;;;;15.30;12.02;;;;;;;-140.66;100.00;55571.53;5136589;27;20452;-73
2023/08/18 04:32:43;;;;;;;17.15;11.65;;;;;;;-140.66;100.00;55571.53;5136521;27;20031;-74
2023/08/18 04:36:27;;;;;;;13.63;11.48;;;;;;;-140.66;100.00;55571.53;5136131;27;20105;-73
2023/08/18 04:40:12;;;;;;;14.95;11.77;;;;;;;-140.66;100.00;55571.53;5137385;27;20035;-73
2023/08/18 04:43:56;;;;;;;17.67;11.35;;;;;;;-140.66;100.00;55571.53;5136700;27;20019;-74
2023/08/18 04:47:40;;;;;;;15.65;11.98;;;;;;;-140.66;100.00;55571.53;5135931;27;20070;-73
2023/08/18 04:51:24;;;;;;;17.10;12.60;;;;;;;-140.66;100.00;55571.53;5137117;27;20040;-72
2023/08/18 04:55:08;;;;;;;27.33;12.45;;;;;;;-140.66;100.00;55571.53;5136596;27;20156;-73
2023/08/18 04:58:53;;;;;;;18.77;12.02;;;;;;;-140.66;100.00;55571.53;5135883;27;20027;-72
2023/08/18 05:02:37;;;;;;;15.98;12.00;;;;;;;-140.66;100.00;55571.53;5136095;27;20122;-73
2023/08/18 05:06:21;;;;;;;21.15;12.68;;;;;;;-140.66;100.00;55571.53;5135980;27;20062;-73
2023/08/18 05:10:05;;;;;;;19.13;12.05;;;;;;;-140.66;100.00;55571.53;5136009;27;20031;-72
2023/08/18 05:13:50;;;;;;;17.60;11.55;;;;;;;-140.66;100.00;55571.53;5136287;27;20033;-73
2023/08/18 05:17:34;;;;;;;21.15;11.68;;;;;;;-140.66;100.00;55571.53;5135604;27;20024;-73
2023/08/18 05:21:18;;;;;;;28.65;14.32;;;;;;;-140.66;100.00;55571.53;5135417;27;20030;-73
2023/08/18 05:25:03;;;;;;;21.45;14.02;;;;;;;-140.66;100.00;55571.53;5135900;27;20023;-72
2023/08/18 05:28:47;;;;;;;23.75;14.25;;;;;;;-140.66;100.00;55571.53;5135775;27;20060;-73
2023/08/18 05:32:31;;;;;;;27.30;13.82;;;;;;;-140.66;100.00;55571.53;5135578;27;20034;-73
2023/08/18 05:36:17;;;;;;;21.52;13.68;;;;;;;-140.66;100.00;55571.53;5136515;27;20046;-73
2023/08/18 05:40:02;;;;;;;25.50;13.27;;;;;;;-140.66;100.00;55571.53;5135621;27;20033;-72
2023/08/18 05:43:46;;;;;;;21.75;13.77;;;;;;;-140.66;100.00;55571.53;5135474;27;20114;-72
2023/08/18 05:47:31;;;;;;;20.02;13.05;;;;;;;-140.66;100.00;55571.53;5134572;27;20380;-71
2023/08/18 05:51:15;;;;;;;21.40;12.23;;;;;;;-140.66;100.00;55571.53;5134651;27;20034;-73
2023/08/18 05:54:59;;;;;;;21.20;12.90;;;;;;;-140.66;100.00;55571.53;5135234;27;20024;-72
2023/08/18 05:58:43;;;;;;;21.27;13.57;;;;;;;-140.66;100.00;55571.53;5135438;27;20023;-73
2023/08/18 06:02:28;;;;;;;26.05;12.88;;;;;;;-140.66;100.00;55571.53;5134439;27;20034;-73
2023/08/18 06:06:12;;;;;;;30.83;14.45;;;;;;;-140.66;100.00;55571.53;5134516;27;20444;-73
2023/08/18 06:09:56;;;;;;;27.45;13.98;;;;;;;-140.66;100.00;55571.53;5134957;28;20418;-73
2023/08/18 06:13:40;;;;;;;43.60;15.43;;;;;;;-140.66;100.00;55571.53;5135277;28;20027;-72
2023/08/18 06:17:24;;;;;;;28.95;13.85;;;;;;;-140.66;100.00;55571.53;5134439;28;20046;-72
2023/08/18 06:21:09;;;;;;;25.58;13.50;;;;;;;-140.66;100.00;55571.53;5133290;28;20444;-72
2023/08/18 06:24:53;;;;;;;22.73;12.00;;;;;;;-140.66;100.00;55571.53;5134122;28;20034;-73
2023/08/18 06:28:38;;;;;;;19.40;11.55;;;;;;;-140.66;100.00;55571.53;5134971;28;20110;-72
2023/08/18 06:32:22;;;;;;;21.35;11.95;;;;;;;-140.66;100.00;55571.53;5134782;28;20023;-72
2023/08/18 06:36:06;;;;;;;18.85;11.75;;;;;;;-140.66;100.00;55571.53;5135351;28;20058;-72
2023/08/18 06:39:50;;;;;;;14.57;11.15;;;;;;;-140.66;100.00;55571.53;5134078;28;20050;-72
2023/08/18 06:43:35;;;;;;;17.95;11.70;;;;;;;-140.66;100.00;55571.53;5134008;28;20075;-73
2023/08/18 06:47:19;;;;;;;18.85;11.70;;;;;;;-140.66;100.00;55571.53;5133518;28;20415;-73
2023/08/18 06:51:04;;;;;;;22.40;12.00;;;;;;;-140.66;100.00;55571.53;5134488;28;20027;-72
2023/08/18 06:54:48;;;;;;;21.02;11.85;;;;;;;-140.66;100.00;55571.53;5147909;27;20429;-72
2023/08/18 06:58:32;;;;;;;15.57;11.88;;;;;;;-140.66;100.00;55571.53;5134050;28;20046;-72
2023/08/18 07:02:17;;;;;;;23.00;10.93;;;;;;;-140.66;100.00;55571.53;5134354;28;20031;-72
2023/08/18 07:06:02;;;;;;;23.38;10.88;;;;;;;-140.66;100.00;55571.53;5134980;28;20019;-73
2023/08/18 07:09:48;;;;;;;22.65;12.07;;;;;;;-140.66;100.00;55571.53;5138187;28;20023;-72
2023/08/18 07:13:33;;;;;;;20.25;11.30;;;;;;;-140.66;100.00;55571.53;5140303;27;20464;-72
2023/08/18 07:17:18;;;;;;;15.68;11.43;;;;;;;-140.66;100.00;55571.53;5138314;27;20035;-73
2023/08/18 07:21:03;;;;;;;15.35;11.10;;;;;;;-140.66;100.00;55571.53;5138471;27;20357;-72
2023/08/18 07:24:48;;;;;;;16.75;11.55;;;;;;;-140.66;100.00;55571.53;5142435;27;20023;-73
2023/08/18 07:28:33;;;;;;;13.40;10.35;;;;;;;-140.66;100.00;55571.53;5142707;27;20509;-73
2023/08/18 07:32:17;;;;;;;15.88;11.40;;;;;;;-140.66;100.00;55571.53;5141231;27;20027;-73
2023/08/18 07:36:01;;;;;;;20.77;11.70;;;;;;;-140.66;100.00;55571.53;5137781;27;20035;-73
2023/08/18 07:39:46;;;;;;;21.23;10.90;;;;;;;-140.66;100.00;55571.53;5138977;27;20023;-73
2023/08/18 07:43:30;;;;;;;13.75;10.48;;;;;;;-140.66;100.00;55571.53;5139688;27;20050;-72
2023/08/18 07:47:14;;;;;;;14.88;10.38;;;;;;;-140.66;100.00;55571.53;5147534;27;20082;-73
2023/08/18 07:50:58;;;;;;;12.70;10.15;;;;;;;-140.66;100.00;55571.53;5154814;27;20457;-73
2023/08/18 07:54:43;;;;;;;14.98;10.70;;;;;;;-140.66;100.00;55571.53;5137043;27;20023;-72
2023/08/18 07:58:27;;;;;;;13.90;10.50;;;;;;;-140.66;100.00;55571.53;5136866;27;20058;-73
2023/08/18 08:02:11;;;;;;;16.13;10.00;;;;;;;-140.66;100.00;55571.53;5136955;27;20390;-73
2023/08/18 08:05:56;;;;;;;19.15;10.60;;;;;;;-140.66;100.00;55571.53;5137287;27;20031;-73
2023/08/18 08:09:40;;;;;;;18.60;9.48;;;;;;;-140.66;100.00;55571.53;5136075;27;20035;-72
2023/08/18 08:13:25;;;;;;;13.80;9.82;;;;;;;-140.66;100.00;55571.53;5137157;27;20045;-72
2023/08/18 08:17:09;;;;;;;12.50;9.98;;;;;;;-140.66;100.00;55571.53;5136983;27;20062;-72
2023/08/18 08:20:54;;;;;;;12.23;8.82;;;;;;;-140.66;100.00;55571.53;5136408;27;20026;-73
2023/08/18 08:24:38;;;;;;;14.70;9.73;;;;;;;-140.66;100.00;55571.53;5135927;27;20019;-72
2023/08/18 08:28:22;;;;;;;13.43;8.18;;;;;;;-140.66;100.00;55571.53;5136788;27;20106;-73
2023/08/18 08:32:06;;;;;;;8.30;6.65;;;;;;;-140.66;100.00;55571.53;5136008;27;20436;-72
2023/08/18 08:35:51;;;;;;;11.80;7.30;;;;;;;-140.66;100.00;55571.53;5136144;27;20031;-73
2023/08/18 08:39:35;;;;;;;9.60;7.10;;;;;;;-140.66;100.00;55571.53;5135372;27;20060;-73
2023/08/18 08:43:21;;;;;;;8.38;7.15;;;;;;;-140.66;100.00;55571.53;5136097;27;20026;-72
2023/08/18 08:47:06;;;;;;;12.80;7.18;;;;;;;-140.66;100.00;55571.53;5136296;27;20039;-72
2023/08/18 08:50:58;;;;;;;10.07;7.45;;;;;;;-140.66;100.00;55571.53;5136011;27;20361;-73
2023/08/18 08:54:49;;;;;;;11.45;7.28;;;;;;;-140.66;100.00;55571.53;5135212;27;20023;-73
2023/08/18 08:58:34;;;;;;;9.98;6.97;;;;;;;-140.66;100.00;55571.53;5135501;27;20364;-72
2023/08/18 09:02:20;;;;;;;12.73;6.95;;;;;;;-140.66;100.00;55571.53;5135500;27;20355;-73
2023/08/18 09:06:06;;;;;;;13.95;6.78;;;;;;;-140.66;100.00;55571.53;5136103;27;20033;-74
2023/08/18 09:09:51;;;;;;;13.18;7.07;;;;;;;-140.66;100.00;55571.53;5135155;27;20041;-74
2023/08/18 09:13:39;;;;;;;13.15;6.82;;;;;;;-140.66;100.00;55571.53;5135008;27;20027;-72
2023/08/18 09:17:26;;;;;;;11.57;6.82;;;;;;;-140.66;100.00;55571.53;5135253;27;20027;-73
2023/08/18 09:21:10;;;;;;;8.00;6.38;;;;;;;-140.66;100.00;55571.53;5135430;27;20033;-72
2023/08/18 09:24:56;;;;;;;9.07;6.50;;;;;;;-140.66;100.00;55571.53;5135227;27;20027;-73
2023/08/18 09:28:41;;;;;;;9.88;7.93;;;;;;;-140.66;100.00;55571.53;5136207;27;20096;-73
2023/08/18 09:32:27;;;;;;;8.30;7.50;;;;;;;-140.66;100.00;55571.53;5134964;27;20087;-73
2023/08/18 09:36:15;;;;;;;7.32;6.60;;;;;;;-140.66;100.00;55571.53;5134229;27;20473;-73
2023/08/18 09:40:02;;;;;;;8.98;7.22;;;;;;;-140.66;100.00;55571.53;5136201;27;20073;-73
2023/08/18 09:43:48;;;;;;;9.85;6.70;;;;;;;-140.66;100.00;55571.53;5134449;27;20023;-72
2023/08/18 09:47:37;;;;;;;10.32;7.43;;;;;;;-140.66;100.00;55571.53;5134316;27;20143;-73
2023/08/18 09:51:31;;;;;;;9.48;7.90;;;;;;;-140.66;100.00;55571.53;5135385;27;20035;-72
2023/08/18 09:55:20;;;;;;;10.68;7.88;;;;;;;-140.66;100.00;55571.53;5134210;27;20054;-72
2023/08/18 09:59:11;;;;;;;9.93;7.30;;;;;;;-140.66;100.00;55571.53;5134391;27;20320;-73
2023/08/18 10:02:58;;;;;;;12.20;7.35;;;;;;;-140.66;100.00;55571.53;5134970;27;20068;-72
2023/08/18 10:06:45;;;;;;;14.40;7.47;;;;;;;-140.66;100.00;55571.53;5135229;27;20445;-73
2023/08/18 10:10:30;;;;;;;15.68;7.45;;;;;;;-140.66;100.00;55571.53;5134292;27;20459;-72
2023/08/18 10:14:15;;;;;;;10.82;7.38;;;;;;;-140.66;100.00;55571.53;5135070;28;20453;-73
2023/08/18 10:18:04;;;;;;;12.00;7.40;;;;;;;-140.66;100.00;55571.53;5135301;28;20024;-73
2023/08/18 10:21:49;;;;;;;10.45;7.28;;;;;;;-140.66;100.00;55571.53;5134409;28;20095;-73
2023/08/18 10:25:37;;;;;;;12.70;6.90;;;;;;;-140.66;100.00;55571.53;5134880;28;20448;-73
2023/08/18 10:29:25;;;;;;;13.10;7.57;;;;;;;-140.66;100.00;55571.53;5134137;28;20041;-74
2023/08/18 10:33:11;;;;;;;16.77;7.40;;;;;;;-140.66;100.00;55571.53;5134340;28;20110;-72
2023/08/18 10:37:02;;;;;;;8.07;6.88;;;;;;;-140.66;100.00;55571.53;5134649;28;20085;-73
2023/08/18 10:40:51;;;;;;;13.13;6.53;;;;;;;-140.66;100.00;55571.53;5134652;28;20409;-75
2023/08/18 10:45:00;;;;;;;23.33;8.00;;;;;;;-140.66;100.00;55571.53;5135038;28;20050;-74
2023/08/18 10:48:45;;;;;;;8.70;7.22;;;;;;;-140.66;100.00;55571.53;5138405;27;20039;-72
2023/08/18 10:52:29;;;;;;;9.02;7.13;;;;;;;-140.66;100.00;55571.53;5140243;27;20038;-74
2023/08/18 10:56:14;;;;;;;13.38;7.28;;;;;;;-140.66;100.00;55571.53;5138942;27;20070;-73
2023/08/18 10:59:58;;;;;;;14.32;7.70;;;;;;;-140.66;100.00;55571.53;5137494;27;20398;-72
2023/08/18 11:03:44;;;;;;;18.85;7.40;;;;;;;-140.66;100.00;55571.53;5137995;27;20027;-72
2023/08/18 11:07:28;;;;;;;11.35;7.47;;;;;;;-140.66;100.00;55571.53;5137684;27;20019;-72
2023/08/18 11:11:15;;;;;;;18.13;7.80;;;;;;;-140.66;100.00;55571.53;5153414;27;20034;-73
2023/08/18 11:14:59;;;;;;;11.80;7.68;;;;;;;-140.66;100.00;55571.53;5137654;27;20027;-73
2023/08/18 11:18:43;;;;;;;11.32;7.32;;;;;;;-140.66;100.00;55571.53;5137360;27;20027;-72
2023/08/18 11:22:28;;;;;;;9.13;7.60;;;;;;;-140.66;100.00;55571.53;5138486;27;20058;-73
2023/08/18 11:26:13;;;;;;;18.23;8.30;;;;;;;-140.66;100.00;55571.53;5136654;27;20118;-74
2023/08/18 11:29:58;;;;;;;10.43;7.93;;;;;;;-140.66;100.00;55571.53;5137073;27;20364;-73
2023/08/18 11:33:42;;;;;;;15.35;8.20;;;;;;;-140.66;100.00;55571.53;5136948;27;20026;-74
2023/08/18 11:37:28;;;;;;;10.27;8.40;;;;;;;-140.66;100.00;55571.53;5138293;27;20110;-76
2023/08/18 11:41:16;;;;;;;11.65;7.82;;;;;;;-140.66;100.00;55571.53;5135921;27;20023;-73
2023/08/18 11:45:00;;;;;;;9.05;7.47;;;;;;;-140.66;100.00;55571.53;5137970;27;20029;-73
2023/08/18 11:49:11;;;;;;;10.82;8.20;;;;;;;-140.66;100.00;55571.53;5136578;27;20138;-72
2023/08/18 11:52:56;;;;;;;11.00;8.10;;;;;;;-140.66;100.00;55571.53;5136749;27;20392;-72
2023/08/18 11:56:42;;;;;;;8.70;7.80;;;;;;;-140.66;100.00;55571.53;5136229;27;20165;-74
2023/08/18 12:00:35;;;;;;;11.25;8.05;;;;;;;-140.66;100.00;55571.53;5137053;27;20132;-72
2023/08/18 12:04:27;;;;;;;15.07;8.52;;;;;;;-140.66;100.00;55571.53;5136839;27;20027;-72
2023/08/18 12:08:11;;;;;;;17.25;8.55;;;;;;;-140.66;100.00;55571.53;5136987;27;20501;-74
2023/08/18 12:11:56;;;;;;;19.20;8.55;;;;;;;-140.66;100.00;55571.53;5137336;27;20083;-71
2023/08/18 12:15:40;;;;;;;13.68;8.18;;;;;;;-140.66;100.00;55571.53;5136219;27;20406;-71
2023/08/18 12:19:24;;;;;;;13.55;8.30;;;;;;;-140.66;100.00;55571.53;5135591;27;20120;-72
2023/08/18 12:23:09;;;;;;;14.73;8.15;;;;;;;-140.66;100.00;55571.53;5136804;27;20080;-72
2023/08/18 12:26:53;;;;;;;9.40;8.02;;;;;;;-140.66;100.00;55571.53;5136989;27;20015;-73
2023/08/18 12:30:37;;;;;;;13.43;7.50;;;;;;;-140.66;100.00;55571.53;5136064;27;20549;-71
2023/08/18 12:34:21;;;;;;;18.35;7.45;;;;;;;-140.66;100.00;55571.53;5136054;27;20042;-71
2023/08/18 12:38:07;;;;;;;16.10;8.15;;;;;;;-140.66;100.00;55571.53;5136381;27;20056;-70
2023/08/18 12:41:52;;;;;;;12.02;7.60;;;;;;;-140.66;100.00;55571.53;5135960;27;20022;-71
2023/08/18 12:45:37;;;;;;;11.90;8.32;;;;;;;-140.66;100.00;55571.53;5136223;27;20023;-71
2023/08/18 12:49:22;;;;;;;8.90;7.75;;;;;;;-140.66;100.00;55571.53;5135647;27;20392;-71
2023/08/18 12:53:07;;;;;;;12.68;7.60;;;;;;;-140.66;100.00;55571.53;5136442;27;20368;-71
2023/08/18 12:56:51;;;;;;;11.15;7.70;;;;;;;-140.66;100.00;55571.53;5135971;27;20042;-71
2023/08/18 13:00:35;;;;;;;8.93;7.80;;;;;;;-140.66;100.00;55571.53;5135661;27;20039;-71
2023/08/18 13:04:20;;;;;;;11.05;8.10;;;;;;;-140.66;100.00;55571.53;5135363;27;20027;-72
2023/08/18 13:08:04;;;;;;;16.67;8.18;;;;;;;-140.66;100.00;55571.53;5136779;27;20019;-71
2023/08/18 13:11:48;;;;;;;12.07;7.95;;;;;;;-140.66;100.00;55571.53;5134649;27;20410;-71
2023/08/18 13:15:32;;;;;;;12.18;7.95;;;;;;;-140.66;100.00;55571.53;5137480;27;20023;-71
2023/08/18 13:19:17;;;;;;;13.32;7.63;;;;;;;-140.66;100.00;55571.53;5136001;27;20027;-72
2023/08/18 13:23:03;;;;;;;16.02;7.72;;;;;;;-140.66;100.00;55571.53;5135393;27;20027;-71
2023/08/18 13:26:47;;;;;;;14.10;7.78;;;;;;;-140.66;100.00;55571.53;5136610;27;20019;-72
2023/08/18 13:30:31;;;;;;;17.73;8.10;;;;;;;-140.66;100.00;55571.53;5136115;27;20023;-72
2023/08/18 13:34:16;;;;;;;13.95;7.95;;;;;;;-140.66;100.00;55571.53;5134648;27;20119;-71
2023/08/18 13:38:00;;;;;;;13.68;7.43;;;;;;;-140.66;100.00;55571.53;5134502;27;20023;-72
2023/08/18 13:41:45;;;;;;;12.35;7.50;;;;;;;-140.66;100.00;55571.53;5135295;27;20095;-73
2023/08/18 13:45:29;;;;;;;11.38;7.45;;;;;;;-140.66;100.00;55571.53;5134829;27;20106;-72
2023/08/18 13:49:13;;;;;;;13.02;7.30;;;;;;;-140.66;100.00;55571.53;5134663;27;20134;-72
2023/08/18 13:52:57;;;;;;;19.83;8.10;;;;;;;-140.66;100.00;55571.53;5135612;27;20027;-72
2023/08/18 13:56:42;;;;;;;16.65;7.65;;;;;;;-140.66;100.00;55571.53;5134190;27;20365;-71
2023/08/18 14:00:27;;;;;;;16.02;7.05;;;;;;;-140.66;100.00;55571.53;5135273;27;20350;-72
2023/08/18 14:04:11;;;;;;;10.90;6.78;;;;;;;-140.66;100.00;55571.53;5135064;27;20034;-72
2023/08/18 14:07:55;;;;;;;9.15;6.93;;;;;;;-140.66;100.00;55571.53;5134183;27;20106;-72
2023/08/18 14:11:40;;;;;;;18.92;8.10;;;;;;;-140.66;100.00;55571.53;5134332;27;20023;-73
2023/08/18 14:15:24;;;;;;;12.90;7.25;;;;;;;-140.66;100.00;55571.53;5134172;28;20452;-73
2023/08/18 14:19:08;;;;;;;11.35;7.75;;;;;;;-140.66;100.00;55571.53;5134255;28;20050;-72
2023/08/18 14:22:54;;;;;;;11.05;7.68;;;;;;;-140.66;100.00;55571.53;5135555;27;20106;-72
2023/08/18 14:26:38;;;;;;;15.82;8.40;;;;;;;-140.66;100.00;55571.53;5138867;27;20365;-72
2023/08/18 14:30:23;;;;;;;24.05;9.90;;;;;;;-140.66;100.00;55571.53;5138387;27;20114;-72
2023/08/18 14:34:07;;;;;;;21.17;10.13;;;;;;;-140.66;100.00;55571.53;5139358;27;20102;-72
2023/08/18 14:37:51;;;;;;;34.97;11.00;;;;;;;-140.66;100.00;55571.53;5141728;27;20045;-71
2023/08/18 14:41:36;;;;;;;22.13;9.20;;;;;;;-140.66;100.00;55571.53;5138798;27;20083;-71
2023/08/18 14:45:20;;;;;;;19.77;9.00;;;;;;;-140.66;100.00;55571.53;5138108;27;20035;-72
2023/08/18 14:49:04;;;;;;;22.92;9.00;;;;;;;-140.66;100.00;55571.53;5138665;27;20385;-71
2023/08/18 14:52:49;;;;;;;18.77;9.43;;;;;;;-140.66;100.00;55571.53;5139634;27;20031;-71
2023/08/18 14:56:33;;;;;;;19.88;8.70;;;;;;;-140.66;100.00;55571.53;5154848;27;20039;-71
2023/08/18 15:00:17;;;;;;;17.52;7.78;;;;;;;-140.66;100.00;55571.53;5137961;27;20091;-71
2023/08/18 15:04:03;;;;;;;10.43;7.35;;;;;;;-140.66;100.00;55571.53;5138048;27;20175;-73
2023/08/18 15:07:49;;;;;;;13.52;7.93;;;;;;;-140.66;100.00;55571.53;5143397;27;20344;-71
2023/08/18 15:11:37;;;;;;;17.65;8.20;;;;;;;-140.66;100.00;55571.53;5141903;27;20460;-70
2023/08/18 15:15:21;;;;;;;18.75;8.50;;;;;;;-140.66;100.00;55571.53;5142914;27;20030;-70
2023/08/18 15:19:06;;;;;;;14.68;7.85;;;;;;;-140.66;100.00;55571.53;5141701;27;20064;-70
2023/08/18 15:22:50;;;;;;;24.40;9.70;;;;;;;-140.66;100.00;55571.53;5145375;27;20035;-70
2023/08/18 15:26:35;;;;;;;25.23;10.25;;;;;;;-140.66;100.00;55571.53;5143049;27;20023;-71
2023/08/18 15:30:19;;;;;;;14.45;7.88;;;;;;;-140.66;100.00;55571.53;5142411;27;20052;-70
2023/08/18 15:34:03;;;;;;;11.13;7.65;;;;;;;-140.66;100.00;55571.53;5138536;27;20028;-72
2023/08/18 15:37:51;;;;;;;10.50;7.88;;;;;;;-140.66;100.00;55571.53;5137598;27;20038;-72
2023/08/18 15:41:41;;;;;;;11.65;7.80;;;;;;;-140.66;100.00;55571.53;5138560;27;20042;-72
2023/08/18 15:45:26;;;;;;;15.65;8.07;;;;;;;-140.66;100.00;55571.53;5136969;27;20031;-71
2023/08/18 15:49:10;;;;;;;10.68;7.68;;;;;;;-140.66;100.00;55571.53;5136584;27;20074;-71
2023/08/18 15:52:55;;;;;;;9.70;7.93;;;;;;;-140.66;100.00;55571.53;5136510;27;20027;-72
2023/08/18 15:56:40;;;;;;;13.13;7.47;;;;;;;-140.66;100.00;55571.53;5137504;27;20055;-72
2023/08/18 16:00:24;;;;;;;10.85;7.00;;;;;;;-140.66;100.00;55571.53;5136353;27;20320;-72
2023/08/18 16:04:08;;;;;;;14.18;7.85;;;;;;;-140.66;100.00;55571.53;5137648;27;20512;-71
2023/08/18 16:07:53;;;;;;;10.50;6.68;;;;;;;-140.66;100.00;55571.53;5137180;27;20031;-73
2023/08/18 16:11:37;;;;;;;10.52;7.05;;;;;;;-140.66;100.00;55571.53;5136438;27;20031;-71
2023/08/18 16:15:22;;;;;;;10.82;6.53;;;;;;;-140.66;100.00;55571.53;5136784;27;20130;-71
2023/08/18 16:19:06;;;;;;;11.75;6.80;;;;;;;-140.66;100.00;55571.53;5136125;27;20104;-72
2023/08/18 16:22:51;;;;;;;13.35;6.13;;;;;;;-140.66;100.00;55571.53;5136423;27;20078;-71
2023/08/18 16:26:35;;;;;;;12.95;6.00;;;;;;;-140.66;100.00;55571.53;5136438;27;20110;-72
2023/08/18 16:30:19;;;;;;;10.18;6.60;;;;;;;-140.66;100.00;55571.53;5136480;27;20074;-71
2023/08/18 16:34:03;;;;;;;11.32;6.13;;;;;;;-140.66;100.00;55571.53;5137045;27;20023;-70
2023/08/18 16:37:47;;;;;;;8.80;5.60;;;;;;;-140.66;100.00;55571.53;5135259;27;20019;-71
2023/08/18 16:41:32;;;;;;;12.45;6.25;;;;;;;-140.66;100.00;55571.53;5136074;27;20476;-71
2023/08/18 16:45:17;;;;;;;10.13;5.90;;;;;;;-140.66;100.00;55571.53;5135014;27;20035;-71
2023/08/18 16:49:01;;;;;;;13.32;6.10;;;;;;;-140.66;100.00;55571.53;5135852;27;20381;-72